sensor_id;sensor_type;location;lat;lon;timestamp;P1;durP1;ratioP1;P2;durP2;ratioP2
37633;SDS011;32048;49.902;22.508;2023-05-10T00:00:46;16.03;;;7.63;;
37633;SDS011;32048;49.902;22.508;2023-05-10T00:03:13;12.67;;;7.13;;
37633;SDS011;32048;49.902;22.508;2023-05-10T00:05:40;13.47;;;7.57;;
37633;SDS011;32048;49.902;22.508;2023-05-10T00:08:07;11.87;;;7.00;;
37633;SDS011;32048;49.902;22.508;2023-05-10T00:10:34;12.97;;;6.63;;
37633;SDS011;32048;49.902;22.508;2023-05-10T00:13:02;12.57;;;7.57;;
37633;SDS011;32048;49.902;22.508;2023-05-10T00:15:30;14.33;;;7.80;;
37633;SDS011;32048;49.902;22.508;2023-05-10T00:17:57;12.67;;;7.40;;
37633;SDS011;32048;49.902;22.508;2023-05-10T00:20:24;16.33;;;7.53;;
37633;SDS011;32048;49.902;22.508;2023-05-10T00:22:51;13.53;;;7.00;;
37633;SDS011;32048;49.902;22.508;2023-05-10T00:25:18;12.57;;;6.97;;
37633;SDS011;32048;49.902;22.508;2023-05-10T00:27:47;12.73;;;7.32;;
37633;SDS011;32048;49.902;22.508;2023-05-10T00:30:15;14.00;;;6.97;;
37633;SDS011;32048;49.902;22.508;2023-05-10T00:32:43;12.40;;;6.63;;
37633;SDS011;32048;49.902;22.508;2023-05-10T00:35:10;12.23;;;6.73;;
37633;SDS011;32048;49.902;22.508;2023-05-10T00:37:37;15.17;;;7.30;;
37633;SDS011;32048;49.902;22.508;2023-05-10T00:40:05;14.77;;;6.50;;
37633;SDS011;32048;49.902;22.508;2023-05-10T00:42:32;16.27;;;7.47;;
37633;SDS011;32048;49.902;22.508;2023-05-10T00:45:00;14.27;;;6.93;;
37633;SDS011;32048;49.902;22.508;2023-05-10T00:47:27;14.20;;;7.27;;
37633;SDS011;32048;49.902;22.508;2023-05-10T00:49:54;14.97;;;8.17;;
37633;SDS011;32048;49.902;22.508;2023-05-10T00:52:22;15.63;;;7.37;;
37633;SDS011;32048;49.902;22.508;2023-05-10T00:54:51;15.37;;;7.47;;
37633;SDS011;32048;49.902;22.508;2023-05-10T00:57:18;13.55;;;7.10;;
37633;SDS011;32048;49.902;22.508;2023-05-10T00:59:46;13.53;;;6.97;;
37633;SDS011;32048;49.902;22.508;2023-05-10T01:02:13;13.53;;;8.63;;
37633;SDS011;32048;49.902;22.508;2023-05-10T01:04:40;15.73;;;7.57;;
37633;SDS011;32048;49.902;22.508;2023-05-10T01:07:07;13.40;;;7.80;;
37633;SDS011;32048;49.902;22.508;2023-05-10T01:09:34;13.43;;;7.73;;
37633;SDS011;32048;49.902;22.508;2023-05-10T01:12:02;14.30;;;6.80;;
37633;SDS011;32048;49.902;22.508;2023-05-10T01:14:30;14.60;;;6.90;;
37633;SDS011;32048;49.902;22.508;2023-05-10T01:16:57;10.10;;;7.33;;
37633;SDS011;32048;49.902;22.508;2023-05-10T01:19:25;12.93;;;7.10;;
37633;SDS011;32048;49.902;22.508;2023-05-10T01:35:59;17.63;;;7.57;;
37633;SDS011;32048;49.902;22.508;2023-05-10T01:38:46;11.90;;;7.70;;
37633;SDS011;32048;49.902;22.508;2023-05-10T01:41:18;14.67;;;7.50;;
37633;SDS011;32048;49.902;22.508;2023-05-10T01:44:01;9.70;;;6.20;;
37633;SDS011;32048;49.902;22.508;2023-05-10T01:46:37;13.60;;;6.90;;
37633;SDS011;32048;49.902;22.508;2023-05-10T01:49:08;11.00;;;7.07;;
37633;SDS011;32048;49.902;22.508;2023-05-10T01:51:39;14.77;;;7.40;;
37633;SDS011;32048;49.902;22.508;2023-05-10T01:54:13;14.27;;;7.37;;
37633;SDS011;32048;49.902;22.508;2023-05-10T01:56:44;15.20;;;7.37;;
37633;SDS011;32048;49.902;22.508;2023-05-10T01:59:15;16.50;;;7.60;;
37633;SDS011;32048;49.902;22.508;2023-05-10T02:01:45;10.60;;;6.80;;
37633;SDS011;32048;49.902;22.508;2023-05-10T02:04:15;11.40;;;7.63;;
37633;SDS011;32048;49.902;22.508;2023-05-10T02:06:44;10.67;;;7.23;;
37633;SDS011;32048;49.902;22.508;2023-05-10T02:09:14;13.77;;;8.10;;
37633;SDS011;32048;49.902;22.508;2023-05-10T02:11:43;13.05;;;7.90;;
37633;SDS011;32048;49.902;22.508;2023-05-10T02:14:10;13.33;;;7.27;;
37633;SDS011;32048;49.902;22.508;2023-05-10T02:16:38;11.97;;;7.13;;
37633;SDS011;32048;49.902;22.508;2023-05-10T02:19:07;15.65;;;8.32;;
37633;SDS011;32048;49.902;22.508;2023-05-10T02:21:35;13.90;;;7.93;;
37633;SDS011;32048;49.902;22.508;2023-05-10T02:24:04;16.75;;;8.70;;
37633;SDS011;32048;49.902;22.508;2023-05-10T02:26:32;16.57;;;8.43;;
37633;SDS011;32048;49.902;22.508;2023-05-10T02:29:02;14.67;;;8.23;;
37633;SDS011;32048;49.902;22.508;2023-05-10T02:31:31;14.77;;;7.70;;
37633;SDS011;32048;49.902;22.508;2023-05-10T02:33:59;12.67;;;8.20;;
37633;SDS011;32048;49.902;22.508;2023-05-10T02:36:28;18.05;;;8.02;;
37633;SDS011;32048;49.902;22.508;2023-05-10T02:38:56;16.97;;;7.83;;
37633;SDS011;32048;49.902;22.508;2023-05-10T02:41:25;13.80;;;8.27;;
37633;SDS011;32048;49.902;22.508;2023-05-10T02:43:54;12.20;;;7.53;;
37633;SDS011;32048;49.902;22.508;2023-05-10T02:46:26;15.10;;;7.17;;
37633;SDS011;32048;49.902;22.508;2023-05-10T02:48:53;12.57;;;7.90;;
37633;SDS011;32048;49.902;22.508;2023-05-10T02:51:20;12.63;;;7.40;;
37633;SDS011;32048;49.902;22.508;2023-05-10T02:53:51;18.33;;;10.53;;
37633;SDS011;32048;49.902;22.508;2023-05-10T02:56:25;14.07;;;7.60;;
37633;SDS011;32048;49.902;22.508;2023-05-10T02:58:58;16.17;;;10.83;;
37633;SDS011;32048;49.902;22.508;2023-05-10T03:01:25;15.27;;;10.47;;
37633;SDS011;32048;49.902;22.508;2023-05-10T03:03:52;23.27;;;14.00;;
37633;SDS011;32048;49.902;22.508;2023-05-10T03:06:19;21.87;;;11.90;;
37633;SDS011;32048;49.902;22.508;2023-05-10T03:08:46;18.73;;;10.80;;
37633;SDS011;32048;49.902;22.508;2023-05-10T03:14:09;17.47;;;10.07;;
37633;SDS011;32048;49.902;22.508;2023-05-10T03:16:58;20.97;;;10.23;;
37633;SDS011;32048;49.902;22.508;2023-05-10T03:19:47;20.48;;;10.25;;
37633;SDS011;32048;49.902;22.508;2023-05-10T03:22:24;18.50;;;10.47;;
37633;SDS011;32048;49.902;22.508;2023-05-10T03:24:55;18.93;;;10.00;;
37633;SDS011;32048;49.902;22.508;2023-05-10T03:27:25;20.20;;;10.10;;
37633;SDS011;32048;49.902;22.508;2023-05-10T03:32:22;22.63;;;11.63;;
37633;SDS011;32048;49.902;22.508;2023-05-10T03:34:49;22.00;;;12.87;;
37633;SDS011;32048;49.902;22.508;2023-05-10T03:37:17;24.23;;;11.90;;
37633;SDS011;32048;49.902;22.508;2023-05-10T03:39:44;23.67;;;13.47;;
37633;SDS011;32048;49.902;22.508;2023-05-10T03:42:11;27.13;;;13.73;;
37633;SDS011;32048;49.902;22.508;2023-05-10T03:44:39;28.30;;;13.63;;
37633;SDS011;32048;49.902;22.508;2023-05-10T03:47:06;33.17;;;16.63;;
37633;SDS011;32048;49.902;22.508;2023-05-10T03:49:33;33.60;;;16.17;;
37633;SDS011;32048;49.902;22.508;2023-05-10T03:52:00;53.37;;;18.13;;
37633;SDS011;32048;49.902;22.508;2023-05-10T03:54:27;27.33;;;15.37;;
37633;SDS011;32048;49.902;22.508;2023-05-10T03:56:54;23.37;;;12.67;;
37633;SDS011;32048;49.902;22.508;2023-05-10T03:59:21;23.00;;;11.50;;
37633;SDS011;32048;49.902;22.508;2023-05-10T04:01:48;17.13;;;10.30;;
37633;SDS011;32048;49.902;22.508;2023-05-10T04:04:16;17.27;;;9.47;;
37633;SDS011;32048;49.902;22.508;2023-05-10T04:06:45;16.70;;;11.77;;
37633;SDS011;32048;49.902;22.508;2023-05-10T04:09:12;19.90;;;9.47;;
37633;SDS011;32048;49.902;22.508;2023-05-10T04:11:40;10.03;;;6.33;;
37633;SDS011;32048;49.902;22.508;2023-05-10T04:14:07;28.53;;;7.20;;
37633;SDS011;32048;49.902;22.508;2023-05-10T04:16:34;9.33;;;5.47;;
37633;SDS011;32048;49.902;22.508;2023-05-10T04:19:01;10.03;;;6.33;;
37633;SDS011;32048;49.902;22.508;2023-05-10T04:21:29;13.37;;;6.73;;
37633;SDS011;32048;49.902;22.508;2023-05-10T04:23:56;18.80;;;8.20;;
37633;SDS011;32048;49.902;22.508;2023-05-10T04:26:24;25.97;;;17.80;;
37633;SDS011;32048;49.902;22.508;2023-05-10T04:28:52;51.80;;;29.37;;
37633;SDS011;32048;49.902;22.508;2023-05-10T04:31:19;24.00;;;12.82;;
37633;SDS011;32048;49.902;22.508;2023-05-10T04:33:46;19.10;;;10.30;;
37633;SDS011;32048;49.902;22.508;2023-05-10T04:36:13;18.13;;;8.07;;
37633;SDS011;32048;49.902;22.508;2023-05-10T04:38:40;17.92;;;8.32;;
37633;SDS011;32048;49.902;22.508;2023-05-10T04:41:07;13.23;;;7.70;;
37633;SDS011;32048;49.902;22.508;2023-05-10T04:43:35;11.40;;;6.60;;
37633;SDS011;32048;49.902;22.508;2023-05-10T04:46:03;14.40;;;6.75;;
37633;SDS011;32048;49.902;22.508;2023-05-10T04:48:31;16.13;;;7.05;;
37633;SDS011;32048;49.902;22.508;2023-05-10T04:50:58;20.42;;;8.88;;
37633;SDS011;32048;49.902;22.508;2023-05-10T04:53:25;17.00;;;6.63;;
37633;SDS011;32048;49.902;22.508;2023-05-10T04:55:52;22.13;;;6.80;;
37633;SDS011;32048;49.902;22.508;2023-05-10T04:58:19;15.75;;;5.20;;
37633;SDS011;32048;49.902;22.508;2023-05-10T05:00:46;9.55;;;4.80;;
37633;SDS011;32048;49.902;22.508;2023-05-10T05:03:13;14.90;;;4.90;;
37633;SDS011;32048;49.902;22.508;2023-05-10T05:05:41;8.32;;;4.80;;
37633;SDS011;32048;49.902;22.508;2023-05-10T05:08:07;8.45;;;5.28;;
37633;SDS011;32048;49.902;22.508;2023-05-10T05:10:35;8.60;;;4.88;;
37633;SDS011;32048;49.902;22.508;2023-05-10T05:13:02;8.95;;;5.05;;
37633;SDS011;32048;49.902;22.508;2023-05-10T05:15:29;11.40;;;5.32;;
37633;SDS011;32048;49.902;22.508;2023-05-10T05:17:57;8.02;;;4.43;;
37633;SDS011;32048;49.902;22.508;2023-05-10T05:20:24;6.97;;;4.22;;
37633;SDS011;32048;49.902;22.508;2023-05-10T05:22:51;8.05;;;4.20;;
37633;SDS011;32048;49.902;22.508;2023-05-10T05:25:18;9.38;;;5.13;;
37633;SDS011;32048;49.902;22.508;2023-05-10T05:27:45;9.55;;;4.40;;
37633;SDS011;32048;49.902;22.508;2023-05-10T05:30:12;6.47;;;3.97;;
37633;SDS011;32048;49.902;22.508;2023-05-10T05:32:39;9.23;;;4.10;;
37633;SDS011;32048;49.902;22.508;2023-05-10T05:35:07;12.32;;;3.38;;
37633;SDS011;32048;49.902;22.508;2023-05-10T05:37:34;8.00;;;3.58;;
37633;SDS011;32048;49.902;22.508;2023-05-10T05:40:02;4.32;;;3.25;;
37633;SDS011;32048;49.902;22.508;2023-05-10T05:42:30;6.47;;;2.95;;
37633;SDS011;32048;49.902;22.508;2023-05-10T05:44:58;8.75;;;2.85;;
37633;SDS011;32048;49.902;22.508;2023-05-10T05:47:25;4.57;;;3.22;;
37633;SDS011;32048;49.902;22.508;2023-05-10T05:49:52;4.75;;;3.00;;
37633;SDS011;32048;49.902;22.508;2023-05-10T05:52:19;6.47;;;3.38;;
37633;SDS011;32048;49.902;22.508;2023-05-10T05:54:47;10.32;;;3.08;;
37633;SDS011;32048;49.902;22.508;2023-05-10T05:57:14;5.38;;;2.95;;
37633;SDS011;32048;49.902;22.508;2023-05-10T05:59:41;3.92;;;3.20;;
37633;SDS011;32048;49.902;22.508;2023-05-10T06:02:10;5.00;;;3.05;;
37633;SDS011;32048;49.902;22.508;2023-05-10T06:04:37;4.75;;;2.95;;
37633;SDS011;32048;49.902;22.508;2023-05-10T06:07:04;6.75;;;2.65;;
37633;SDS011;32048;49.902;22.508;2023-05-10T06:09:32;7.53;;;3.15;;
37633;SDS011;32048;49.902;22.508;2023-05-10T06:11:59;6.07;;;3.28;;
37633;SDS011;32048;49.902;22.508;2023-05-10T06:14:26;7.35;;;3.03;;
37633;SDS011;32048;49.902;22.508;2023-05-10T06:16:53;7.22;;;3.15;;
37633;SDS011;32048;49.902;22.508;2023-05-10T06:19:20;3.65;;;2.60;;
37633;SDS011;32048;49.902;22.508;2023-05-10T06:21:47;5.20;;;2.72;;
37633;SDS011;32048;49.902;22.508;2023-05-10T06:24:16;6.32;;;2.70;;
37633;SDS011;32048;49.902;22.508;2023-05-10T06:26:43;4.47;;;2.63;;
37633;SDS011;32048;49.902;22.508;2023-05-10T06:29:10;4.57;;;2.95;;
37633;SDS011;32048;49.902;22.508;2023-05-10T06:31:37;4.97;;;2.72;;
37633;SDS011;32048;49.902;22.508;2023-05-10T06:34:04;3.83;;;2.08;;
37633;SDS011;32048;49.902;22.508;2023-05-10T06:36:31;3.75;;;3.00;;
37633;SDS011;32048;49.902;22.508;2023-05-10T06:38:58;4.85;;;2.85;;
37633;SDS011;32048;49.902;22.508;2023-05-10T06:41:25;6.88;;;3.03;;
37633;SDS011;32048;49.902;22.508;2023-05-10T06:43:52;4.97;;;2.85;;
37633;SDS011;32048;49.902;22.508;2023-05-10T06:46:19;4.10;;;2.67;;
37633;SDS011;32048;49.902;22.508;2023-05-10T06:48:46;7.13;;;3.60;;
37633;SDS011;32048;49.902;22.508;2023-05-10T06:51:13;7.03;;;3.47;;
37633;SDS011;32048;49.902;22.508;2023-05-10T06:53:40;7.30;;;2.90;;
37633;SDS011;32048;49.902;22.508;2023-05-10T06:56:07;4.47;;;2.58;;
37633;SDS011;32048;49.902;22.508;2023-05-10T06:58:34;3.78;;;2.72;;
37633;SDS011;32048;49.902;22.508;2023-05-10T07:01:02;4.00;;;2.13;;
37633;SDS011;32048;49.902;22.508;2023-05-10T07:03:29;4.13;;;3.30;;
37633;SDS011;32048;49.902;22.508;2023-05-10T07:06:01;6.85;;;2.85;;
37633;SDS011;32048;49.902;22.508;2023-05-10T07:08:30;8.10;;;3.38;;
37633;SDS011;32048;49.902;22.508;2023-05-10T07:13:28;6.03;;;3.13;;
37633;SDS011;32048;49.902;22.508;2023-05-10T07:15:55;7.68;;;3.13;;
37633;SDS011;32048;49.902;22.508;2023-05-10T07:18:22;3.67;;;2.38;;
37633;SDS011;32048;49.902;22.508;2023-05-10T07:20:49;5.93;;;3.20;;
37633;SDS011;32048;49.902;22.508;2023-05-10T07:23:16;10.57;;;3.70;;
37633;SDS011;32048;49.902;22.508;2023-05-10T07:25:47;7.57;;;3.50;;
37633;SDS011;32048;49.902;22.508;2023-05-10T07:28:15;6.22;;;3.30;;
37633;SDS011;32048;49.902;22.508;2023-05-10T07:30:43;8.27;;;2.53;;
37633;SDS011;32048;49.902;22.508;2023-05-10T07:33:10;5.03;;;2.38;;
37633;SDS011;32048;49.902;22.508;2023-05-10T07:35:39;5.72;;;3.67;;
37633;SDS011;32048;49.902;22.508;2023-05-10T07:38:06;5.55;;;3.72;;
37633;SDS011;32048;49.902;22.508;2023-05-10T07:40:34;7.22;;;3.28;;
37633;SDS011;32048;49.902;22.508;2023-05-10T07:43:00;5.32;;;3.13;;
37633;SDS011;32048;49.902;22.508;2023-05-10T07:45:28;6.10;;;3.10;;
37633;SDS011;32048;49.902;22.508;2023-05-10T07:47:55;6.40;;;3.15;;
37633;SDS011;32048;49.902;22.508;2023-05-10T07:50:23;6.32;;;3.38;;
37633;SDS011;32048;49.902;22.508;2023-05-10T07:52:50;8.65;;;3.20;;
37633;SDS011;32048;49.902;22.508;2023-05-10T07:55:18;6.05;;;3.10;;
37633;SDS011;32048;49.902;22.508;2023-05-10T07:57:45;4.20;;;2.42;;
37633;SDS011;32048;49.902;22.508;2023-05-10T08:00:12;6.43;;;3.08;;
37633;SDS011;32048;49.902;22.508;2023-05-10T08:02:43;5.35;;;2.90;;
37633;SDS011;32048;49.902;22.508;2023-05-10T08:05:10;6.15;;;2.58;;
37633;SDS011;32048;49.902;22.508;2023-05-10T08:07:37;4.63;;;3.05;;
37633;SDS011;32048;49.902;22.508;2023-05-10T08:10:05;8.63;;;3.88;;
37633;SDS011;32048;49.902;22.508;2023-05-10T08:12:32;3.92;;;2.85;;
37633;SDS011;32048;49.902;22.508;2023-05-10T08:15:00;8.30;;;3.97;;
37633;SDS011;32048;49.902;22.508;2023-05-10T08:17:26;5.03;;;2.67;;
37633;SDS011;32048;49.902;22.508;2023-05-10T08:19:54;4.32;;;2.65;;
37633;SDS011;32048;49.902;22.508;2023-05-10T08:22:21;10.18;;;4.53;;
37633;SDS011;32048;49.902;22.508;2023-05-10T08:24:48;3.38;;;2.63;;
37633;SDS011;32048;49.902;22.508;2023-05-10T08:27:15;7.35;;;2.95;;
37633;SDS011;32048;49.902;22.508;2023-05-10T08:29:42;7.70;;;3.20;;
37633;SDS011;32048;49.902;22.508;2023-05-10T08:32:15;9.48;;;3.67;;
37633;SDS011;32048;49.902;22.508;2023-05-10T08:34:42;5.78;;;2.10;;
37633;SDS011;32048;49.902;22.508;2023-05-10T08:37:09;3.03;;;2.67;;
37633;SDS011;32048;49.902;22.508;2023-05-10T08:39:40;3.13;;;2.40;;
37633;SDS011;32048;49.902;22.508;2023-05-10T08:42:07;4.57;;;2.70;;
37633;SDS011;32048;49.902;22.508;2023-05-10T08:44:36;6.05;;;3.28;;
37633;SDS011;32048;49.902;22.508;2023-05-10T08:47:06;4.70;;;2.90;;
37633;SDS011;32048;49.902;22.508;2023-05-10T08:49:36;7.78;;;3.08;;
37633;SDS011;32048;49.902;22.508;2023-05-10T08:52:03;7.63;;;4.20;;
37633;SDS011;32048;49.902;22.508;2023-05-10T08:54:32;4.55;;;2.20;;
37633;SDS011;32048;49.902;22.508;2023-05-10T08:57:00;2.33;;;1.80;;
37633;SDS011;32048;49.902;22.508;2023-05-10T08:59:27;3.88;;;2.50;;
37633;SDS011;32048;49.902;22.508;2023-05-10T09:01:58;7.28;;;2.92;;
37633;SDS011;32048;49.902;22.508;2023-05-10T09:04:25;4.90;;;2.83;;
37633;SDS011;32048;49.902;22.508;2023-05-10T09:06:53;5.57;;;2.83;;
37633;SDS011;32048;49.902;22.508;2023-05-10T09:09:21;8.55;;;3.10;;
37633;SDS011;32048;49.902;22.508;2023-05-10T09:11:48;3.78;;;2.67;;
37633;SDS011;32048;49.902;22.508;2023-05-10T09:14:15;6.00;;;2.47;;
37633;SDS011;32048;49.902;22.508;2023-05-10T09:16:44;2.70;;;2.47;;
37633;SDS011;32048;49.902;22.508;2023-05-10T09:19:11;5.43;;;2.30;;
37633;SDS011;32048;49.902;22.508;2023-05-10T09:21:38;3.25;;;2.30;;
37633;SDS011;32048;49.902;22.508;2023-05-10T09:24:06;5.88;;;2.00;;
37633;SDS011;32048;49.902;22.508;2023-05-10T09:26:34;5.88;;;2.88;;
37633;SDS011;32048;49.902;22.508;2023-05-10T09:29:03;3.70;;;2.40;;
37633;SDS011;32048;49.902;22.508;2023-05-10T09:31:51;5.45;;;1.60;;
37633;SDS011;32048;49.902;22.508;2023-05-10T09:34:18;3.08;;;2.28;;
37633;SDS011;32048;49.902;22.508;2023-05-10T09:39:18;5.72;;;2.17;;
37633;SDS011;32048;49.902;22.508;2023-05-10T09:41:45;2.53;;;2.10;;
37633;SDS011;32048;49.902;22.508;2023-05-10T09:44:15;3.83;;;2.28;;
37633;SDS011;32048;49.902;22.508;2023-05-10T09:46:48;8.25;;;2.78;;
37633;SDS011;32048;49.902;22.508;2023-05-10T09:49:16;7.05;;;2.67;;
37633;SDS011;32048;49.902;22.508;2023-05-10T09:51:43;5.20;;;2.97;;
37633;SDS011;32048;49.902;22.508;2023-05-10T09:56:41;3.63;;;2.78;;
37633;SDS011;32048;49.902;22.508;2023-05-10T09:59:10;6.47;;;3.35;;
37633;SDS011;32048;49.902;22.508;2023-05-10T10:04:06;5.72;;;2.92;;
37633;SDS011;32048;49.902;22.508;2023-05-10T10:06:37;5.82;;;2.20;;
37633;SDS011;32048;49.902;22.508;2023-05-10T10:09:06;5.15;;;2.38;;
37633;SDS011;32048;49.902;22.508;2023-05-10T10:11:34;7.05;;;2.55;;
37633;SDS011;32048;49.902;22.508;2023-05-10T10:14:03;4.90;;;2.83;;
37633;SDS011;32048;49.902;22.508;2023-05-10T10:16:31;5.57;;;2.78;;
37633;SDS011;32048;49.902;22.508;2023-05-10T10:18:59;8.45;;;2.53;;
37633;SDS011;32048;49.902;22.508;2023-05-10T10:21:27;4.70;;;2.85;;
37633;SDS011;32048;49.902;22.508;2023-05-10T10:23:54;13.65;;;2.85;;
37633;SDS011;32048;49.902;22.508;2023-05-10T10:26:21;5.13;;;2.80;;
37633;SDS011;32048;49.902;22.508;2023-05-10T10:29:11;5.37;;;2.60;;
37633;SDS011;32048;49.902;22.508;2023-05-10T10:34:26;11.63;;;5.07;;
37633;SDS011;32048;49.902;22.508;2023-05-10T10:39:23;4.88;;;2.58;;
37633;SDS011;32048;49.902;22.508;2023-05-10T10:41:54;4.38;;;3.13;;
37633;SDS011;32048;49.902;22.508;2023-05-10T10:57:56;7.32;;;2.38;;
37633;SDS011;32048;49.902;22.508;2023-05-10T11:00:39;5.50;;;2.22;;
37633;SDS011;32048;49.902;22.508;2023-05-10T11:03:11;4.18;;;2.20;;
37633;SDS011;32048;49.902;22.508;2023-05-10T11:05:46;16.23;;;3.07;;
37633;SDS011;32048;49.902;22.508;2023-05-10T11:13:27;5.38;;;2.70;;
37633;SDS011;32048;49.902;22.508;2023-05-10T11:18:39;4.43;;;2.75;;
37633;SDS011;32048;49.902;22.508;2023-05-10T11:21:08;2.72;;;2.40;;
37633;SDS011;32048;49.902;22.508;2023-05-10T11:26:15;5.13;;;2.40;;
37633;SDS011;32048;49.902;22.508;2023-05-10T11:28:43;9.98;;;3.08;;
37633;SDS011;32048;49.902;22.508;2023-05-10T11:31:10;4.47;;;2.53;;
37633;SDS011;32048;49.902;22.508;2023-05-10T11:33:43;3.47;;;1.60;;
37633;SDS011;32048;49.902;22.508;2023-05-10T11:36:12;6.22;;;2.70;;
37633;SDS011;32048;49.902;22.508;2023-05-10T11:38:41;5.13;;;2.53;;
37633;SDS011;32048;49.902;22.508;2023-05-10T11:41:09;5.88;;;2.45;;
37633;SDS011;32048;49.902;22.508;2023-05-10T11:43:40;6.40;;;2.67;;
37633;SDS011;32048;49.902;22.508;2023-05-10T11:46:12;3.92;;;2.60;;
37633;SDS011;32048;49.902;22.508;2023-05-10T11:48:40;5.80;;;2.53;;
37633;SDS011;32048;49.902;22.508;2023-05-10T11:51:08;4.30;;;2.80;;
37633;SDS011;32048;49.902;22.508;2023-05-10T11:53:37;4.40;;;2.10;;
37633;SDS011;32048;49.902;22.508;2023-05-10T11:56:05;4.03;;;2.50;;
37633;SDS011;32048;49.902;22.508;2023-05-10T11:58:37;8.10;;;2.53;;
37633;SDS011;32048;49.902;22.508;2023-05-10T12:01:05;5.03;;;2.88;;
37633;SDS011;32048;49.902;22.508;2023-05-10T12:03:34;3.67;;;2.13;;
37633;SDS011;32048;49.902;22.508;2023-05-10T12:06:02;6.38;;;3.85;;
37633;SDS011;32048;49.902;22.508;2023-05-10T12:08:29;5.82;;;2.50;;
37633;SDS011;32048;49.902;22.508;2023-05-10T12:11:04;3.70;;;2.50;;
37633;SDS011;32048;49.902;22.508;2023-05-10T12:13:40;2.90;;;2.20;;
37633;SDS011;32048;49.902;22.508;2023-05-10T12:16:13;5.93;;;3.08;;
37633;SDS011;32048;49.902;22.508;2023-05-10T12:18:42;3.15;;;2.25;;
37633;SDS011;32048;49.902;22.508;2023-05-10T12:21:13;5.00;;;2.60;;
37633;SDS011;32048;49.902;22.508;2023-05-10T12:23:41;4.38;;;2.05;;
37633;SDS011;32048;49.902;22.508;2023-05-10T12:26:09;6.35;;;2.80;;
37633;SDS011;32048;49.902;22.508;2023-05-10T12:28:37;5.15;;;2.60;;
37633;SDS011;32048;49.902;22.508;2023-05-10T12:31:05;6.50;;;2.65;;
37633;SDS011;32048;49.902;22.508;2023-05-10T12:33:42;7.78;;;4.20;;
37633;SDS011;32048;49.902;22.508;2023-05-10T12:36:11;13.30;;;5.32;;
37633;SDS011;32048;49.902;22.508;2023-05-10T12:38:40;5.40;;;2.65;;
37633;SDS011;32048;49.902;22.508;2023-05-10T12:41:15;3.10;;;2.35;;
37633;SDS011;32048;49.902;22.508;2023-05-10T12:43:44;5.65;;;2.60;;
37633;SDS011;32048;49.902;22.508;2023-05-10T12:46:16;4.63;;;3.05;;
37633;SDS011;32048;49.902;22.508;2023-05-10T12:48:44;16.92;;;4.47;;
37633;SDS011;32048;49.902;22.508;2023-05-10T12:51:32;16.70;;;6.10;;
37633;SDS011;32048;49.902;22.508;2023-05-10T12:53:59;5.07;;;2.65;;
37633;SDS011;32048;49.902;22.508;2023-05-10T12:56:26;4.28;;;2.35;;
37633;SDS011;32048;49.902;22.508;2023-05-10T12:58:53;3.85;;;2.10;;
37633;SDS011;32048;49.902;22.508;2023-05-10T13:01:20;2.88;;;2.30;;
37633;SDS011;32048;49.902;22.508;2023-05-10T13:03:47;7.53;;;3.60;;
37633;SDS011;32048;49.902;22.508;2023-05-10T13:06:14;3.85;;;1.80;;
37633;SDS011;32048;49.902;22.508;2023-05-10T13:08:41;4.35;;;2.20;;
37633;SDS011;32048;49.902;22.508;2023-05-10T13:11:08;7.75;;;2.80;;
37633;SDS011;32048;49.902;22.508;2023-05-10T13:13:35;8.13;;;3.63;;
37633;SDS011;32048;49.902;22.508;2023-05-10T13:16:03;3.22;;;2.10;;
37633;SDS011;32048;49.902;22.508;2023-05-10T13:18:30;3.60;;;2.20;;
37633;SDS011;32048;49.902;22.508;2023-05-10T13:20:57;10.50;;;3.45;;
37633;SDS011;32048;49.902;22.508;2023-05-10T13:23:24;3.67;;;2.00;;
37633;SDS011;32048;49.902;22.508;2023-05-10T13:25:51;4.28;;;2.42;;
37633;SDS011;32048;49.902;22.508;2023-05-10T13:28:18;4.85;;;2.30;;
37633;SDS011;32048;49.902;22.508;2023-05-10T13:30:45;4.97;;;2.25;;
37633;SDS011;32048;49.902;22.508;2023-05-10T13:33:12;4.40;;;2.10;;
37633;SDS011;32048;49.902;22.508;2023-05-10T13:35:39;3.47;;;1.85;;
37633;SDS011;32048;49.902;22.508;2023-05-10T13:38:06;2.83;;;1.80;;
37633;SDS011;32048;49.902;22.508;2023-05-10T13:40:34;4.20;;;2.70;;
37633;SDS011;32048;49.902;22.508;2023-05-10T13:43:02;5.43;;;2.38;;
37633;SDS011;32048;49.902;22.508;2023-05-10T13:45:29;4.82;;;2.42;;
37633;SDS011;32048;49.902;22.508;2023-05-10T13:47:56;8.88;;;2.10;;
37633;SDS011;32048;49.902;22.508;2023-05-10T13:50:23;3.55;;;2.03;;
37633;SDS011;32048;49.902;22.508;2023-05-10T13:52:51;3.30;;;2.03;;
37633;SDS011;32048;49.902;22.508;2023-05-10T13:55:18;3.75;;;2.08;;
37633;SDS011;32048;49.902;22.508;2023-05-10T13:57:45;7.18;;;2.90;;
37633;SDS011;32048;49.902;22.508;2023-05-10T14:00:13;3.97;;;2.10;;
37633;SDS011;32048;49.902;22.508;2023-05-10T14:02:40;6.95;;;3.33;;
37633;SDS011;32048;49.902;22.508;2023-05-10T14:05:07;7.43;;;2.42;;
37633;SDS011;32048;49.902;22.508;2023-05-10T14:07:34;4.22;;;2.33;;
37633;SDS011;32048;49.902;22.508;2023-05-10T14:10:02;4.50;;;2.22;;
37633;SDS011;32048;49.902;22.508;2023-05-10T14:12:29;7.35;;;2.28;;
37633;SDS011;32048;49.902;22.508;2023-05-10T14:14:56;3.10;;;1.85;;
37633;SDS011;32048;49.902;22.508;2023-05-10T14:17:24;5.60;;;1.92;;
37633;SDS011;32048;49.902;22.508;2023-05-10T14:19:52;3.15;;;2.20;;
37633;SDS011;32048;49.902;22.508;2023-05-10T14:22:19;6.15;;;2.88;;
37633;SDS011;32048;49.902;22.508;2023-05-10T14:24:46;3.13;;;2.15;;
37633;SDS011;32048;49.902;22.508;2023-05-10T14:27:13;3.50;;;1.92;;
37633;SDS011;32048;49.902;22.508;2023-05-10T14:29:41;2.08;;;1.83;;
37633;SDS011;32048;49.902;22.508;2023-05-10T14:32:08;5.40;;;2.50;;
37633;SDS011;32048;49.902;22.508;2023-05-10T14:34:35;5.57;;;2.20;;
37633;SDS011;32048;49.902;22.508;2023-05-10T14:37:02;4.80;;;2.33;;
37633;SDS011;32048;49.902;22.508;2023-05-10T14:39:29;2.85;;;2.00;;
37633;SDS011;32048;49.902;22.508;2023-05-10T14:41:56;7.35;;;2.92;;
37633;SDS011;32048;49.902;22.508;2023-05-10T14:44:25;10.13;;;2.70;;
37633;SDS011;32048;49.902;22.508;2023-05-10T14:46:52;3.90;;;2.15;;
37633;SDS011;32048;49.902;22.508;2023-05-10T14:49:19;3.92;;;2.35;;
37633;SDS011;32048;49.902;22.508;2023-05-10T14:54:16;5.25;;;2.25;;
37633;SDS011;32048;49.902;22.508;2023-05-10T14:56:43;5.13;;;1.77;;
37633;SDS011;32048;49.902;22.508;2023-05-10T14:59:10;5.28;;;2.25;;
37633;SDS011;32048;49.902;22.508;2023-05-10T15:01:38;2.65;;;1.88;;
37633;SDS011;32048;49.902;22.508;2023-05-10T15:04:08;6.38;;;2.60;;
37633;SDS011;32048;49.902;22.508;2023-05-10T15:06:36;8.88;;;3.03;;
37633;SDS011;32048;49.902;22.508;2023-05-10T15:09:03;2.65;;;1.90;;
37633;SDS011;32048;49.902;22.508;2023-05-10T15:11:30;5.63;;;2.10;;
37633;SDS011;32048;49.902;22.508;2023-05-10T15:13:57;8.57;;;1.90;;
37633;SDS011;32048;49.902;22.508;2023-05-10T15:16:24;8.73;;;2.28;;
37633;SDS011;32048;49.902;22.508;2023-05-10T15:18:52;6.55;;;2.10;;
37633;SDS011;32048;49.902;22.508;2023-05-10T15:21:19;6.93;;;3.17;;
37633;SDS011;32048;49.902;22.508;2023-05-10T15:23:46;3.47;;;2.38;;
37633;SDS011;32048;49.902;22.508;2023-05-10T15:26:13;3.30;;;1.83;;
37633;SDS011;32048;49.902;22.508;2023-05-10T15:28:40;3.75;;;2.20;;
37633;SDS011;32048;49.902;22.508;2023-05-10T15:31:07;3.35;;;2.10;;
37633;SDS011;32048;49.902;22.508;2023-05-10T15:33:36;5.88;;;2.60;;
37633;SDS011;32048;49.902;22.508;2023-05-10T15:36:03;2.72;;;2.08;;